Wenceslau Braz, Brazil
Current Conditions -  °F | °C
As of 7:00 AM on Thursday 23 Oct 2014 (Local Time) from SBSJ Reporting Station
Overcast Overcast  
Wind Chill: 66°   Ceiling: 1700
Heat Index: 66°   Visibility: 4mi
Dew Point: 57°   Wind: 7mph
Humidity: 73%   Direction: 90°E
Pressure: 30.18"   Gusts: NA
Location:  22.53°S, 45.36°W
Report Text: SBSJ 230900Z 09006KT 7000 BKN017 OVC025 19/14 Q1022
Loading
Personal Weather Stations






























Interactive Weather Map
Tropical Storm Tracking
New forecast layout! Learn more

10-Day Weather Forecast

Advertisements
Track Severe Weather on mobile